LiveATC.Net - Listen to live air traffic control over the Internet!


ICAO: RCSS  IATA: TSA   Airport: Taipei Songshan Airport
City: Taipei
Country: Taiwan   Continent: Asia
RCSS METAR Weather: RCSS 231130Z 28008KT 9999 FEW015 BKN030 BKN090 28/23 Q1008 NOSIG RMK 28008KT/R10 A2979
RCSS ADS-B Flight Tracking  (ADSBExchange)
RCSS Flight Activity (FlightAware)

RCSS Tower/App/Dep
Feed Status: UP   Listeners: 29
Listen in your browser - HTML5 player (in browser, HTML5)
Click here to listen with your own player (launches your MP3 player)
Archive Access: RCSS Tower/App/Dep
FacilityFrequency
Emergency/Guard121.500
FIR Service (North of Taiwan)125.500
Songshan Ground121.900
Songshan Tower118.100
Taipei Arrival/Departure119.600
Taipei Arrival/Departure119.700
Taipei Arrival/Departure (RCTP)125.100

NOTICE

Unauthorized use prohibited. See LiveATC.net Terms of Service


Airport/ARTCC Code
Frequency Search
(e.g., 124.400, 128.75)
Site-wide search
 


Browse Feeds
Top 50 Feeds
HF Oceanic Feeds
Coverage Map
Bad Weather Areas

LiveATC FAQ

Increase Coverage

Contact LiveATC.net
Press Inquiries

LiveATC on iPhone
LiveATC on Android

LiveATC Mobile
(Mobile browser)

ATC Audio Archives
Interesting Recordings

LiveATC Forums


Home Page
About LiveATC.net


Terms of Use
Privacy Policy

AIRMETs/SIGMETs

FAA Airport Status
NAS Status
Arrival Demand


Server Software By:
Icecast.org
Liquidsoap